sensor_id;sensor_type;location;lat;lon;timestamp;pressure;altitude;pressure_sealevel;temperature;humidity
20710;BME280;10516;51.518;9.864;2023-01-15T00:00:45;96959.72;;;6.94;100.00
20710;BME280;10516;51.518;9.864;2023-01-15T00:03:11;96952.59;;;6.90;100.00
20710;BME280;10516;51.518;9.864;2023-01-15T00:05:36;96944.59;;;6.95;100.00
20710;BME280;10516;51.518;9.864;2023-01-15T00:08:02;96963.44;;;6.93;100.00
20710;BME280;10516;51.518;9.864;2023-01-15T00:10:27;96967.91;;;7.03;100.00
20710;BME280;10516;51.518;9.864;2023-01-15T00:12:53;96935.88;;;6.89;100.00
20710;BME280;10516;51.518;9.864;2023-01-15T00:15:18;96952.00;;;7.03;100.00
20710;BME280;10516;51.518;9.864;2023-01-15T00:17:43;96944.88;;;6.93;100.00
20710;BME280;10516;51.518;9.864;2023-01-15T00:20:09;96954.16;;;6.96;100.00
20710;BME280;10516;51.518;9.864;2023-01-15T00:22:35;96935.88;;;6.84;100.00
20710;BME280;10516;51.518;9.864;2023-01-15T00:25:01;96961.59;;;6.89;100.00
20710;BME280;10516;51.518;9.864;2023-01-15T00:27:44;96956.56;;;6.92;100.00
20710;BME280;10516;51.518;9.864;2023-01-15T00:30:12;96964.53;;;6.87;100.00
20710;BME280;10516;51.518;9.864;2023-01-15T00:32:39;96952.84;;;6.93;100.00
20710;BME280;10516;51.518;9.864;2023-01-15T00:35:06;96950.19;;;6.93;100.00
20710;BME280;10516;51.518;9.864;2023-01-15T00:37:31;96953.91;;;6.87;100.00
20710;BME280;10516;51.518;9.864;2023-01-15T00:39:57;96960.78;;;6.88;100.00
20710;BME280;10516;51.518;9.864;2023-01-15T00:42:22;96970.34;;;6.94;100.00
20710;BME280;10516;51.518;9.864;2023-01-15T00:44:47;96965.81;;;6.95;100.00
20710;BME280;10516;51.518;9.864;2023-01-15T00:47:13;96974.56;;;6.95;100.00
20710;BME280;10516;51.518;9.864;2023-01-15T00:49:42;96978.25;;;6.99;100.00
20710;BME280;10516;51.518;9.864;2023-01-15T00:52:08;96980.13;;;6.99;98.98
20710;BME280;10516;51.518;9.864;2023-01-15T00:54:34;96983.59;;;6.94;100.00
20710;BME280;10516;51.518;9.864;2023-01-15T00:56:59;96984.13;;;6.91;100.00
20710;BME280;10516;51.518;9.864;2023-01-15T00:59:25;96970.88;;;6.86;99.67
20710;BME280;10516;51.518;9.864;2023-01-15T01:01:50;96980.38;;;6.97;99.19
20710;BME280;10516;51.518;9.864;2023-01-15T01:04:16;96991.81;;;6.98;100.00
20710;BME280;10516;51.518;9.864;2023-01-15T01:06:41;96987.88;;;6.90;100.00
20710;BME280;10516;51.518;9.864;2023-01-15T01:09:07;96983.88;;;6.88;99.82
20710;BME280;10516;51.518;9.864;2023-01-15T01:11:33;97001.59;;;6.97;100.00
20710;BME280;10516;51.518;9.864;2023-01-15T01:14:01;96997.63;;;6.95;99.54
20710;BME280;10516;51.518;9.864;2023-01-15T01:16:32;96991.81;;;6.98;99.68
20710;BME280;10516;51.518;9.864;2023-01-15T01:19:01;96996.53;;;7.06;99.06
20710;BME280;10516;51.518;9.864;2023-01-15T01:21:28;97013.47;;;7.15;98.63
20710;BME280;10516;51.518;9.864;2023-01-15T01:23:53;97015.09;;;7.11;98.61
20710;BME280;10516;51.518;9.864;2023-01-15T01:26:19;97020.44;;;6.96;98.48
20710;BME280;10516;51.518;9.864;2023-01-15T01:28:49;97032.38;;;6.98;98.86
20710;BME280;10516;51.518;9.864;2023-01-15T01:31:15;97023.84;;;7.06;98.88
20710;BME280;10516;51.518;9.864;2023-01-15T01:33:40;97012.78;;;6.94;98.42
20710;BME280;10516;51.518;9.864;2023-01-15T01:36:06;97033.44;;;7.02;98.44
20710;BME280;10516;51.518;9.864;2023-01-15T01:38:31;97022.28;;;7.00;98.63
20710;BME280;10516;51.518;9.864;2023-01-15T01:40:57;97033.47;;;6.92;99.07
20710;BME280;10516;51.518;9.864;2023-01-15T01:43:28;97025.50;;;6.92;98.93
20710;BME280;10516;51.518;9.864;2023-01-15T01:45:54;97028.94;;;6.98;98.76
20710;BME280;10516;51.518;9.864;2023-01-15T01:48:26;97023.38;;;6.94;98.12
20710;BME280;10516;51.518;9.864;2023-01-15T01:50:55;97035.31;;;6.92;98.68
20710;BME280;10516;51.518;9.864;2023-01-15T01:53:26;97033.22;;;6.78;99.17
20710;BME280;10516;51.518;9.864;2023-01-15T01:55:53;97044.06;;;6.87;98.61
20710;BME280;10516;51.518;9.864;2023-01-15T01:58:21;97042.22;;;6.82;98.45
20710;BME280;10516;51.518;9.864;2023-01-15T02:00:50;97060.53;;;6.74;99.34
20710;BME280;10516;51.518;9.864;2023-01-15T02:03:18;97050.47;;;6.56;99.08
20710;BME280;10516;51.518;9.864;2023-01-15T02:05:55;97061.59;;;6.58;99.03
20710;BME280;10516;51.518;9.864;2023-01-15T02:08:23;97089.44;;;6.60;98.22
20710;BME280;10516;51.518;9.864;2023-01-15T02:10:52;97084.94;;;6.61;99.01
20710;BME280;10516;51.518;9.864;2023-01-15T02:15:55;97104.00;;;6.58;99.02
20710;BME280;10516;51.518;9.864;2023-01-15T02:18:49;97122.56;;;6.43;98.38
20710;BME280;10516;51.518;9.864;2023-01-15T02:29:07;97127.03;;;6.27;97.06
20710;BME280;10516;51.518;9.864;2023-01-15T02:31:40;97134.47;;;6.40;97.35
20710;BME280;10516;51.518;9.864;2023-01-15T02:34:15;97150.13;;;6.47;97.38
20710;BME280;10516;51.518;9.864;2023-01-15T02:36:46;97146.63;;;6.16;97.54
20710;BME280;10516;51.518;9.864;2023-01-15T02:39:14;97132.81;;;5.99;96.91
20710;BME280;10516;51.518;9.864;2023-01-15T02:41:46;97147.06;;;5.88;97.21
20710;BME280;10516;51.518;9.864;2023-01-15T02:44:15;97153.19;;;5.98;96.86
20710;BME280;10516;51.518;9.864;2023-01-15T02:46:42;97167.53;;;6.02;96.55
20710;BME280;10516;51.518;9.864;2023-01-15T02:49:12;97161.69;;;6.00;95.79
20710;BME280;10516;51.518;9.864;2023-01-15T02:51:44;97159.56;;;5.97;96.61
20710;BME280;10516;51.518;9.864;2023-01-15T02:54:13;97156.91;;;5.97;95.76
20710;BME280;10516;51.518;9.864;2023-01-15T02:56:41;97168.53;;;5.91;96.41
20710;BME280;10516;51.518;9.864;2023-01-15T02:59:13;97174.13;;;6.00;95.25
20710;BME280;10516;51.518;9.864;2023-01-15T03:01:43;97173.34;;;6.10;95.52
20710;BME280;10516;51.518;9.864;2023-01-15T03:04:14;97175.97;;;5.99;95.41
20710;BME280;10516;51.518;9.864;2023-01-15T03:09:29;97182.19;;;5.73;96.26
20710;BME280;10516;51.518;9.864;2023-01-15T03:12:11;97187.53;;;5.83;95.50
20710;BME280;10516;51.518;9.864;2023-01-15T03:14:51;97188.84;;;5.76;95.13
20710;BME280;10516;51.518;9.864;2023-01-15T03:17:30;97193.44;;;5.49;94.30
20710;BME280;10516;51.518;9.864;2023-01-15T03:20:02;97189.78;;;5.55;94.61
20710;BME280;10516;51.518;9.864;2023-01-15T03:22:32;97201.47;;;5.59;95.10
20710;BME280;10516;51.518;9.864;2023-01-15T03:25:03;97211.59;;;5.77;95.67
20710;BME280;10516;51.518;9.864;2023-01-15T03:27:31;97202.63;;;5.36;94.40
20710;BME280;10516;51.518;9.864;2023-01-15T03:30:04;97204.47;;;5.30;95.24
20710;BME280;10516;51.518;9.864;2023-01-15T03:32:31;97215.41;;;5.49;94.02
20710;BME280;10516;51.518;9.864;2023-01-15T03:34:57;97210.78;;;5.71;95.83
20710;BME280;10516;51.518;9.864;2023-01-15T03:37:25;97216.34;;;5.75;94.84
20710;BME280;10516;51.518;9.864;2023-01-15T03:39:52;97195.25;;;5.38;94.96
20710;BME280;10516;51.518;9.864;2023-01-15T03:53:10;97179.28;;;5.75;94.25
20710;BME280;10516;51.518;9.864;2023-01-15T03:55:48;97152.44;;;5.51;92.86
20710;BME280;10516;51.518;9.864;2023-01-15T03:58:23;97152.00;;;5.69;94.23
20710;BME280;10516;51.518;9.864;2023-01-15T04:00:52;97149.94;;;5.81;93.93
20710;BME280;10516;51.518;9.864;2023-01-15T04:03:19;97138.19;;;5.52;92.81
20710;BME280;10516;51.518;9.864;2023-01-15T04:05:47;97138.50;;;5.71;93.64
20710;BME280;10516;51.518;9.864;2023-01-15T04:08:14;97133.50;;;5.69;92.89
20710;BME280;10516;51.518;9.864;2023-01-15T04:10:58;97123.69;;;5.70;93.16
20710;BME280;10516;51.518;9.864;2023-01-15T04:13:24;97127.94;;;5.76;92.86
20710;BME280;10516;51.518;9.864;2023-01-15T04:15:50;97120.81;;;5.81;91.92
20710;BME280;10516;51.518;9.864;2023-01-15T04:18:16;97129.84;;;5.85;92.35
20710;BME280;10516;51.518;9.864;2023-01-15T04:20:42;97145.50;;;5.87;92.29
20710;BME280;10516;51.518;9.864;2023-01-15T04:23:08;97125.34;;;5.81;92.75
20710;BME280;10516;51.518;9.864;2023-01-15T04:25:33;97136.47;;;5.88;92.59
20710;BME280;10516;51.518;9.864;2023-01-15T04:27:58;97127.66;;;5.67;90.99
20710;BME280;10516;51.518;9.864;2023-01-15T04:30:24;97138.44;;;5.56;92.23
20710;BME280;10516;51.518;9.864;2023-01-15T04:32:50;97134.66;;;5.93;93.02
20710;BME280;10516;51.518;9.864;2023-01-15T04:35:16;97126.19;;;6.01;91.42
20710;BME280;10516;51.518;9.864;2023-01-15T04:37:42;97130.75;;;6.11;91.44
20710;BME280;10516;51.518;9.864;2023-01-15T04:40:09;97109.78;;;5.89;91.02
20710;BME280;10516;51.518;9.864;2023-01-15T04:42:55;97135.47;;;5.94;91.53
20710;BME280;10516;51.518;9.864;2023-01-15T04:45:39;97134.38;;;5.90;91.34
20710;BME280;10516;51.518;9.864;2023-01-15T04:48:05;97136.25;;;5.94;91.33
20710;BME280;10516;51.518;9.864;2023-01-15T04:50:31;97129.22;;;5.68;91.17
20710;BME280;10516;51.518;9.864;2023-01-15T04:52:56;97123.50;;;5.86;91.37
20710;BME280;10516;51.518;9.864;2023-01-15T04:55:22;97115.22;;;5.68;91.14
20710;BME280;10516;51.518;9.864;2023-01-15T04:57:50;97105.47;;;5.83;92.10
20710;BME280;10516;51.518;9.864;2023-01-15T05:00:16;97116.06;;;5.83;91.48
20710;BME280;10516;51.518;9.864;2023-01-15T05:02:41;97108.81;;;5.54;91.70
20710;BME280;10516;51.518;9.864;2023-01-15T05:05:07;97099.84;;;5.60;91.62
20710;BME280;10516;51.518;9.864;2023-01-15T05:07:32;97087.84;;;5.37;91.47
20710;BME280;10516;51.518;9.864;2023-01-15T05:09:58;97114.84;;;5.44;90.59
20710;BME280;10516;51.518;9.864;2023-01-15T05:12:23;97096.63;;;5.53;91.29
20710;BME280;10516;51.518;9.864;2023-01-15T05:14:48;97101.13;;;5.52;90.84
20710;BME280;10516;51.518;9.864;2023-01-15T05:17:14;97095.28;;;5.45;90.71
20710;BME280;10516;51.518;9.864;2023-01-15T05:19:39;97098.50;;;5.52;91.31
20710;BME280;10516;51.518;9.864;2023-01-15T05:22:04;97092.09;;;5.43;91.21
20710;BME280;10516;51.518;9.864;2023-01-15T05:24:30;97087.56;;;5.28;90.16
20710;BME280;10516;51.518;9.864;2023-01-15T05:26:55;97111.66;;;5.42;91.76
20710;BME280;10516;51.518;9.864;2023-01-15T05:29:22;97108.19;;;5.31;91.05
20710;BME280;10516;51.518;9.864;2023-01-15T05:31:48;97121.13;;;5.33;91.36
20710;BME280;10516;51.518;9.864;2023-01-15T05:34:13;97098.97;;;5.39;90.73
20710;BME280;10516;51.518;9.864;2023-01-15T05:36:40;97109.50;;;5.34;90.37
20710;BME280;10516;51.518;9.864;2023-01-15T05:39:05;97102.09;;;5.26;90.09
20710;BME280;10516;51.518;9.864;2023-01-15T05:41:31;97101.28;;;5.25;90.17
20710;BME280;10516;51.518;9.864;2023-01-15T05:44:26;97107.38;;;5.26;90.17
20710;BME280;10516;51.518;9.864;2023-01-15T05:46:54;97114.25;;;5.27;90.16
20710;BME280;10516;51.518;9.864;2023-01-15T05:49:22;97126.44;;;5.33;90.32
20710;BME280;10516;51.518;9.864;2023-01-15T05:51:48;97140.72;;;5.32;90.17
20710;BME280;10516;51.518;9.864;2023-01-15T05:54:17;97158.22;;;5.38;88.92
20710;BME280;10516;51.518;9.864;2023-01-15T05:56:43;97154.72;;;5.27;89.33
20710;BME280;10516;51.518;9.864;2023-01-15T05:59:10;97148.56;;;5.17;88.92
20710;BME280;10516;51.518;9.864;2023-01-15T06:01:36;97150.91;;;5.13;88.68
20710;BME280;10516;51.518;9.864;2023-01-15T06:04:04;97135.28;;;5.07;88.62
20710;BME280;10516;51.518;9.864;2023-01-15T06:06:29;97132.72;;;5.17;88.67
20710;BME280;10516;51.518;9.864;2023-01-15T06:08:55;97134.59;;;5.21;89.02
20710;BME280;10516;51.518;9.864;2023-01-15T06:11:21;97136.47;;;5.26;88.75
20710;BME280;10516;51.518;9.864;2023-01-15T06:13:46;97138.56;;;5.24;87.93
20710;BME280;10516;51.518;9.864;2023-01-15T06:16:12;97133.16;;;5.09;88.23
20710;BME280;10516;51.518;9.864;2023-01-15T06:18:38;97149.16;;;5.24;87.67
20710;BME280;10516;51.518;9.864;2023-01-15T06:21:06;97158.13;;;4.86;87.23
20710;BME280;10516;51.518;9.864;2023-01-15T06:23:32;97164.97;;;5.19;87.94
20710;BME280;10516;51.518;9.864;2023-01-15T06:26:02;97172.91;;;5.19;87.82
20710;BME280;10516;51.518;9.864;2023-01-15T06:28:27;97170.53;;;5.22;88.30
20710;BME280;10516;51.518;9.864;2023-01-15T06:30:53;97159.66;;;5.14;87.54
20710;BME280;10516;51.518;9.864;2023-01-15T06:33:18;97145.88;;;5.12;87.37
20710;BME280;10516;51.518;9.864;2023-01-15T06:35:44;97150.09;;;5.08;87.03
20710;BME280;10516;51.518;9.864;2023-01-15T06:38:09;97163.53;;;5.01;87.21
20710;BME280;10516;51.518;9.864;2023-01-15T06:40:35;97174.47;;;5.15;88.07
20710;BME280;10516;51.518;9.864;2023-01-15T06:43:00;97186.31;;;5.07;88.34
20710;BME280;10516;51.518;9.864;2023-01-15T06:45:44;97184.56;;;4.86;87.85
20710;BME280;10516;51.518;9.864;2023-01-15T06:48:28;97166.66;;;4.93;88.05
20710;BME280;10516;51.518;9.864;2023-01-15T06:50:54;97194.78;;;5.09;88.53
20710;BME280;10516;51.518;9.864;2023-01-15T06:53:20;97203.47;;;5.05;87.43
20710;BME280;10516;51.518;9.864;2023-01-15T06:55:45;97183.94;;;5.06;88.15
20710;BME280;10516;51.518;9.864;2023-01-15T06:58:11;97177.47;;;4.92;87.50
20710;BME280;10516;51.518;9.864;2023-01-15T07:00:37;97204.53;;;5.04;87.38
20710;BME280;10516;51.518;9.864;2023-01-15T07:03:03;97194.19;;;4.97;87.73
20710;BME280;10516;51.518;9.864;2023-01-15T07:05:29;97204.91;;;4.86;87.23
20710;BME280;10516;51.518;9.864;2023-01-15T07:07:56;97195.47;;;4.95;86.88
20710;BME280;10516;51.518;9.864;2023-01-15T07:10:22;97202.28;;;4.86;87.53
20710;BME280;10516;51.518;9.864;2023-01-15T07:12:47;97208.19;;;4.98;87.31
20710;BME280;10516;51.518;9.864;2023-01-15T07:15:12;97203.22;;;4.75;87.21
20710;BME280;10516;51.518;9.864;2023-01-15T07:17:38;97199.63;;;4.86;87.25
20710;BME280;10516;51.518;9.864;2023-01-15T07:20:04;97199.25;;;4.72;86.82
20710;BME280;10516;51.518;9.864;2023-01-15T07:22:30;97203.28;;;4.80;87.45
20710;BME280;10516;51.518;9.864;2023-01-15T07:24:55;97197.84;;;4.91;87.33
20710;BME280;10516;51.518;9.864;2023-01-15T07:27:21;97196.69;;;4.82;87.09
20710;BME280;10516;51.518;9.864;2023-01-15T07:29:47;97203.88;;;4.87;86.91
20710;BME280;10516;51.518;9.864;2023-01-15T07:32:14;97205.38;;;4.78;87.94
20710;BME280;10516;51.518;9.864;2023-01-15T07:34:39;97195.34;;;4.80;87.51
20710;BME280;10516;51.518;9.864;2023-01-15T07:37:04;97209.88;;;4.77;87.68
20710;BME280;10516;51.518;9.864;2023-01-15T07:39:30;97211.25;;;4.85;87.30
20710;BME280;10516;51.518;9.864;2023-01-15T07:41:56;97223.41;;;4.86;86.71
20710;BME280;10516;51.518;9.864;2023-01-15T07:44:59;97214.13;;;4.83;87.73
20710;BME280;10516;51.518;9.864;2023-01-15T07:48:07;97210.94;;;4.81;86.70
20710;BME280;10516;51.518;9.864;2023-01-15T07:50:51;97219.41;;;4.78;86.91
20710;BME280;10516;51.518;9.864;2023-01-15T07:53:16;97215.91;;;4.73;87.36
20710;BME280;10516;51.518;9.864;2023-01-15T07:55:42;97206.03;;;4.63;86.84
20710;BME280;10516;51.518;9.864;2023-01-15T07:58:07;97199.16;;;4.62;87.18
20710;BME280;10516;51.518;9.864;2023-01-15T08:00:32;97207.97;;;4.73;87.26
20710;BME280;10516;51.518;9.864;2023-01-15T08:02:58;97204.94;;;4.59;87.16
20710;BME280;10516;51.518;9.864;2023-01-15T08:05:23;97225.94;;;4.71;86.38
20710;BME280;10516;51.518;9.864;2023-01-15T08:07:48;97231.75;;;4.73;86.98
20710;BME280;10516;51.518;9.864;2023-01-15T08:10:14;97221.66;;;4.65;87.40
20710;BME280;10516;51.518;9.864;2023-01-15T08:12:40;97210.81;;;4.66;87.52
20710;BME280;10516;51.518;9.864;2023-01-15T08:15:24;97216.44;;;4.75;86.99
20710;BME280;10516;51.518;9.864;2023-01-15T08:17:50;97224.72;;;4.56;86.63
20710;BME280;10516;51.518;9.864;2023-01-15T08:20:22;97232.31;;;4.75;86.92
20710;BME280;10516;51.518;9.864;2023-01-15T08:22:48;97211.50;;;4.56;87.43
20710;BME280;10516;51.518;9.864;2023-01-15T08:25:16;97234.13;;;4.74;87.54
20710;BME280;10516;51.518;9.864;2023-01-15T08:27:42;97224.53;;;4.63;87.54
20710;BME280;10516;51.518;9.864;2023-01-15T08:30:10;97228.63;;;4.76;86.83
20710;BME280;10516;51.518;9.864;2023-01-15T08:32:36;97221.72;;;4.75;86.95
20710;BME280;10516;51.518;9.864;2023-01-15T08:35:02;97236.28;;;4.77;86.74
20710;BME280;10516;51.518;9.864;2023-01-15T08:37:27;97244.50;;;4.81;86.39
20710;BME280;10516;51.518;9.864;2023-01-15T08:39:52;97216.78;;;4.56;86.68
20710;BME280;10516;51.518;9.864;2023-01-15T08:42:21;97234.88;;;4.70;86.79
20710;BME280;10516;51.518;9.864;2023-01-15T08:44:47;97235.34;;;4.62;85.99
20710;BME280;10516;51.518;9.864;2023-01-15T08:47:14;97245.09;;;4.56;85.40
20710;BME280;10516;51.518;9.864;2023-01-15T08:49:39;97232.41;;;4.31;86.56
20710;BME280;10516;51.518;9.864;2023-01-15T08:52:04;97237.22;;;4.39;85.65
20710;BME280;10516;51.518;9.864;2023-01-15T08:54:30;97237.19;;;4.34;86.33
20710;BME280;10516;51.518;9.864;2023-01-15T08:56:56;97236.53;;;4.22;84.94
20710;BME280;10516;51.518;9.864;2023-01-15T08:59:23;97255.53;;;4.19;85.31
20710;BME280;10516;51.518;9.864;2023-01-15T09:01:48;97264.38;;;4.35;85.68
20710;BME280;10516;51.518;9.864;2023-01-15T09:04:15;97248.78;;;4.33;85.80
20710;BME280;10516;51.518;9.864;2023-01-15T09:06:41;97251.34;;;4.23;84.94
20710;BME280;10516;51.518;9.864;2023-01-15T09:09:06;97257.34;;;4.19;85.09
20710;BME280;10516;51.518;9.864;2023-01-15T09:11:32;97241.63;;;4.29;84.83
20710;BME280;10516;51.518;9.864;2023-01-15T09:13:57;97249.97;;;4.21;85.93
20710;BME280;10516;51.518;9.864;2023-01-15T09:16:23;97247.28;;;4.16;84.72
20710;BME280;10516;51.518;9.864;2023-01-15T09:18:50;97247.34;;;3.99;85.21
20710;BME280;10516;51.518;9.864;2023-01-15T09:21:16;97254.91;;;4.12;84.75
20710;BME280;10516;51.518;9.864;2023-01-15T09:23:41;97283.03;;;4.23;84.28
20710;BME280;10516;51.518;9.864;2023-01-15T09:26:06;97265.28;;;4.19;84.85
20710;BME280;10516;51.518;9.864;2023-01-15T09:28:33;97275.03;;;4.18;84.70
20710;BME280;10516;51.518;9.864;2023-01-15T09:30:59;97250.09;;;4.09;84.87
20710;BME280;10516;51.518;9.864;2023-01-15T09:33:25;97254.66;;;4.14;84.08
20710;BME280;10516;51.518;9.864;2023-01-15T09:35:51;97262.84;;;4.17;84.05
20710;BME280;10516;51.518;9.864;2023-01-15T09:38:18;97268.38;;;4.37;84.57
20710;BME280;10516;51.518;9.864;2023-01-15T09:40:50;97264.47;;;4.18;85.39
20710;BME280;10516;51.518;9.864;2023-01-15T09:45:54;97259.66;;;4.15;84.28
20710;BME280;10516;51.518;9.864;2023-01-15T09:56:58;97274.78;;;3.98;84.95
20710;BME280;10516;51.518;9.864;2023-01-15T09:59:36;97285.78;;;4.12;84.72
20710;BME280;10516;51.518;9.864;2023-01-15T10:02:21;97270.31;;;3.99;84.82
20710;BME280;10516;51.518;9.864;2023-01-15T10:04:53;97278.97;;;4.16;84.77
20710;BME280;10516;51.518;9.864;2023-01-15T10:07:27;97282.22;;;4.01;84.71
20710;BME280;10516;51.518;9.864;2023-01-15T10:10:00;97274.84;;;4.03;84.45
20710;BME280;10516;51.518;9.864;2023-01-15T10:12:29;97276.66;;;3.81;84.89
20710;BME280;10516;51.518;9.864;2023-01-15T10:17:45;97267.38;;;3.95;84.65
20710;BME280;10516;51.518;9.864;2023-01-15T10:23:33;97294.50;;;4.12;84.61
20710;BME280;10516;51.518;9.864;2023-01-15T10:26:14;97290.69;;;4.03;84.85
20710;BME280;10516;51.518;9.864;2023-01-15T10:29:17;97300.34;;;4.14;84.28
20710;BME280;10516;51.518;9.864;2023-01-15T10:31:53;97298.06;;;4.01;84.03
20710;BME280;10516;51.518;9.864;2023-01-15T10:37:11;97287.06;;;4.09;83.94
20710;BME280;10516;51.518;9.864;2023-01-15T10:45:24;97274.47;;;4.16;84.45
20710;BME280;10516;51.518;9.864;2023-01-15T10:48:00;97262.28;;;4.10;84.08
20710;BME280;10516;51.518;9.864;2023-01-15T10:50:28;97281.34;;;4.17;84.09
20710;BME280;10516;51.518;9.864;2023-01-15T10:55:43;97269.19;;;4.16;84.44
20710;BME280;10516;51.518;9.864;2023-01-15T11:00:38;97259.66;;;4.15;83.64
20710;BME280;10516;51.518;9.864;2023-01-15T11:03:07;97264.19;;;4.15;83.31
20710;BME280;10516;51.518;9.864;2023-01-15T11:05:38;97260.38;;;4.06;84.18
20710;BME280;10516;51.518;9.864;2023-01-15T11:08:09;97248.53;;;4.08;83.95
20710;BME280;10516;51.518;9.864;2023-01-15T11:10:38;97259.19;;;4.18;83.26
20710;BME280;10516;51.518;9.864;2023-01-15T11:13:18;97257.56;;;4.17;83.88
20710;BME280;10516;51.518;9.864;2023-01-15T11:16:03;97250.78;;;4.21;82.92
20710;BME280;10516;51.518;9.864;2023-01-15T11:18:47;97258.56;;;4.11;82.66
20710;BME280;10516;51.518;9.864;2023-01-15T11:21:31;97262.13;;;4.00;82.59
20710;BME280;10516;51.518;9.864;2023-01-15T11:23:58;97254.66;;;4.14;84.40
20710;BME280;10516;51.518;9.864;2023-01-15T11:26:29;97250.91;;;4.10;82.71
20710;BME280;10516;51.518;9.864;2023-01-15T11:28:57;97249.44;;;3.97;82.50
20710;BME280;10516;51.518;9.864;2023-01-15T11:31:38;97259.13;;;4.13;82.25
20710;BME280;10516;51.518;9.864;2023-01-15T11:34:13;97251.34;;;4.02;82.01
20710;BME280;10516;51.518;9.864;2023-01-15T11:36:40;97253.09;;;4.18;82.05
20710;BME280;10516;51.518;9.864;2023-01-15T11:39:22;97255.81;;;4.01;81.72
20710;BME280;10516;51.518;9.864;2023-01-15T11:41:48;97254.75;;;4.02;81.50
20710;BME280;10516;51.518;9.864;2023-01-15T11:44:32;97271.16;;;4.04;81.99
20710;BME280;10516;51.518;9.864;2023-01-15T11:47:18;97257.53;;;4.12;81.17
20710;BME280;10516;51.518;9.864;2023-01-15T11:50:15;97262.44;;;4.25;80.68
20710;BME280;10516;51.518;9.864;2023-01-15T11:53:00;97272.66;;;4.17;81.00
20710;BME280;10516;51.518;9.864;2023-01-15T11:55:27;97279.38;;;4.29;81.61
20710;BME280;10516;51.518;9.864;2023-01-15T11:57:54;97286.22;;;4.25;81.35
20710;BME280;10516;51.518;9.864;2023-01-15T12:00:21;97286.84;;;4.32;81.83
20710;BME280;10516;51.518;9.864;2023-01-15T12:02:48;97290.56;;;4.36;81.51
20710;BME280;10516;51.518;9.864;2023-01-15T12:05:28;97309.41;;;4.45;81.98
20710;BME280;10516;51.518;9.864;2023-01-15T12:07:57;97316.16;;;4.57;80.94
20710;BME280;10516;51.518;9.864;2023-01-15T12:18:50;97319.53;;;4.53;82.04
20710;BME280;10516;51.518;9.864;2023-01-15T12:21:53;97297.03;;;4.45;80.65
20710;BME280;10516;51.518;9.864;2023-01-15T12:30:13;97309.31;;;4.62;80.50
20710;BME280;10516;51.518;9.864;2023-01-15T12:32:49;97293.13;;;4.53;81.26
20710;BME280;10516;51.518;9.864;2023-01-15T12:35:37;97309.59;;;4.60;81.40
20710;BME280;10516;51.518;9.864;2023-01-15T12:41:12;97304.41;;;4.70;80.68
20710;BME280;10516;51.518;9.864;2023-01-15T12:43:38;97309.88;;;4.64;80.62
20710;BME280;10516;51.518;9.864;2023-01-15T12:46:25;97318.16;;;4.72;80.86
20710;BME280;10516;51.518;9.864;2023-01-15T12:52:15;97295.63;;;4.65;81.20
20710;BME280;10516;51.518;9.864;2023-01-15T12:57:33;97290.19;;;4.76;80.25
20710;BME280;10516;51.518;9.864;2023-01-15T13:02:36;97288.50;;;4.92;79.77
20710;BME280;10516;51.518;9.864;2023-01-15T13:05:16;97300.13;;;4.91;79.51
20710;BME280;10516;51.518;9.864;2023-01-15T13:10:25;97294.66;;;5.02;78.86
20710;BME280;10516;51.518;9.864;2023-01-15T13:12:59;97279.53;;;4.93;78.63
20710;BME280;10516;51.518;9.864;2023-01-15T13:15:31;97273.63;;;4.86;78.90
20710;BME280;10516;51.518;9.864;2023-01-15T13:18:06;97308.41;;;4.73;78.36
20710;BME280;10516;51.518;9.864;2023-01-15T13:20:47;97300.56;;;4.83;78.16
20710;BME280;10516;51.518;9.864;2023-01-15T13:29:09;97306.09;;;4.81;78.15
20710;BME280;10516;51.518;9.864;2023-01-15T13:32:02;97311.91;;;4.78;78.06
20710;BME280;10516;51.518;9.864;2023-01-15T13:34:55;97290.97;;;4.72;78.64
20710;BME280;10516;51.518;9.864;2023-01-15T13:37:28;97291.19;;;4.70;78.14
20710;BME280;10516;51.518;9.864;2023-01-15T13:40:22;97280.78;;;4.59;76.84
20710;BME280;10516;51.518;9.864;2023-01-15T13:42:48;97291.09;;;4.60;77.66
20710;BME280;10516;51.518;9.864;2023-01-15T13:47:47;97291.84;;;4.55;77.40
20710;BME280;10516;51.518;9.864;2023-01-15T13:50:33;97298.94;;;4.55;77.16
20710;BME280;10516;51.518;9.864;2023-01-15T13:56:11;97313.00;;;4.82;77.45
20710;BME280;10516;51.518;9.864;2023-01-15T13:58:52;97311.94;;;4.83;77.96
20710;BME280;10516;51.518;9.864;2023-01-15T14:09:04;97306.22;;;4.70;76.73
20710;BME280;10516;51.518;9.864;2023-01-15T14:33:48;97334.88;;;4.78;74.16
20710;BME280;10516;51.518;9.864;2023-01-15T14:36:21;97321.00;;;4.66;73.78
20710;BME280;10516;51.518;9.864;2023-01-15T14:38:55;97329.41;;;4.84;73.71
20710;BME280;10516;51.518;9.864;2023-01-15T14:41:26;97341.00;;;4.83;74.52
20710;BME280;10516;51.518;9.864;2023-01-15T14:43:53;97336.44;;;4.74;75.17
20710;BME280;10516;51.518;9.864;2023-01-15T14:46:33;97330.88;;;4.75;74.92
20710;BME280;10516;51.518;9.864;2023-01-15T14:49:00;97338.56;;;4.77;75.00
20710;BME280;10516;51.518;9.864;2023-01-15T14:54:07;97355.84;;;4.84;75.47
20710;BME280;10516;51.518;9.864;2023-01-15T14:56:49;97338.63;;;4.82;76.54
20710;BME280;10516;51.518;9.864;2023-01-15T14:59:22;97338.06;;;4.80;76.78
20710;BME280;10516;51.518;9.864;2023-01-15T15:01:51;97347.09;;;4.84;76.62
20710;BME280;10516;51.518;9.864;2023-01-15T15:06:54;97328.72;;;4.72;77.04
20710;BME280;10516;51.518;9.864;2023-01-15T15:09:27;97349.13;;;4.77;77.74
20710;BME280;10516;51.518;9.864;2023-01-15T15:11:57;97347.97;;;4.68;77.47
20710;BME280;10516;51.518;9.864;2023-01-15T15:23:41;97362.09;;;4.56;77.96
20710;BME280;10516;51.518;9.864;2023-01-15T15:26:26;97380.41;;;4.63;78.90
20710;BME280;10516;51.518;9.864;2023-01-15T15:28:57;97386.28;;;4.65;78.07
20710;BME280;10516;51.518;9.864;2023-01-15T15:31:23;97374.59;;;4.61;78.12
20710;BME280;10516;51.518;9.864;2023-01-15T15:33:53;97358.91;;;4.54;78.05
20710;BME280;10516;51.518;9.864;2023-01-15T15:36:21;97379.31;;;4.59;78.22
20710;BME280;10516;51.518;9.864;2023-01-15T15:38:53;97373.81;;;4.61;78.43
20710;BME280;10516;51.518;9.864;2023-01-15T15:41:19;97374.75;;;4.54;78.34
20710;BME280;10516;51.518;9.864;2023-01-15T15:44:13;97371.28;;;4.49;78.40